Time;durP1;ratioP1;P1;durP2;ratioP2;P2;SDS_P1;SDS_P2;PMS_P1;PMS_P2;Temp;Humidity;BMP_temperature;BMP_pressure;BME280_temperature;BME280_humidity;BME280_pressure;Samples;Min_cycle;Max_cycle;Signal;HPM_P1;HPM_P2
2022/08/18 00:02:25;;;;;;;13.30;7.57;;;;;;;;;;5051408;28;20029;-58
2022/08/18 00:04:52;;;;;;;10.63;8.40;;;;;;;;;;5050530;28;20033;-59
2022/08/18 00:07:26;;;;;;;9.85;7.90;;;;;;;;;;5051856;28;20122;-58
2022/08/18 00:09:52;;;;;;;11.32;8.30;;;;;;;;;;5044413;28;20154;-59
2022/08/18 00:12:20;;;;;;;12.32;8.30;;;;;;;;;;5050291;28;20108;-58
2022/08/18 00:14:46;;;;;;;11.18;7.82;;;;;;;;;;5039893;28;20020;-60
2022/08/18 00:17:12;;;;;;;13.43;8.70;;;;;;;;;;5051073;28;20040;-59
2022/08/18 00:19:38;;;;;;;13.50;8.35;;;;;;;;;;5046047;28;20044;-59
2022/08/18 00:22:04;;;;;;;11.75;8.43;;;;;;;;;;5048661;28;20407;-59
2022/08/18 00:24:30;;;;;;;12.10;8.98;;;;;;;;;;5049891;28;20025;-59
2022/08/18 00:26:57;;;;;;;9.80;7.80;;;;;;;;;;5050234;28;20071;-59
2022/08/18 00:29:23;;;;;;;11.13;8.63;;;;;;;;;;5050830;28;20040;-59
2022/08/18 00:31:49;;;;;;;11.90;8.15;;;;;;;;;;5051212;28;20037;-58
2022/08/18 00:34:16;;;;;;;9.60;7.88;;;;;;;;;;5050049;28;20035;-58
2022/08/18 00:36:42;;;;;;;13.07;8.27;;;;;;;;;;5048412;28;20610;-59
2022/08/18 00:39:08;;;;;;;12.73;8.48;;;;;;;;;;5045449;28;20036;-59
2022/08/18 00:41:34;;;;;;;9.27;7.85;;;;;;;;;;5049026;28;20017;-59
2022/08/18 00:44:00;;;;;;;11.23;8.30;;;;;;;;;;5050078;28;20029;-59
2022/08/18 00:46:29;;;;;;;13.88;8.13;;;;;;;;;;5049870;28;20028;-59
2022/08/18 00:48:55;;;;;;;11.45;8.45;;;;;;;;;;5049590;28;20037;-58
2022/08/18 00:51:29;;;;;;;11.23;8.32;;;;;;;;;;5048580;28;20107;-58
2022/08/18 00:53:58;;;;;;;15.02;8.73;;;;;;;;;;5050415;28;20158;-59
2022/08/18 00:56:37;;;;;;;11.32;8.48;;;;;;;;;;5050282;28;20029;-58
2022/08/18 00:59:22;;;;;;;11.48;9.15;;;;;;;;;;5048356;28;20039;-59
2022/08/18 01:01:49;;;;;;;16.98;8.75;;;;;;;;;;5051095;28;20025;-58
2022/08/18 01:04:22;;;;;;;15.55;8.85;;;;;;;;;;5054809;28;20100;-59
2022/08/18 01:06:51;;;;;;;15.57;9.80;;;;;;;;;;5054754;28;20025;-59
2022/08/18 01:09:17;;;;;;;10.23;9.10;;;;;;;;;;5054586;28;20048;-58
2022/08/18 01:11:44;;;;;;;10.32;8.70;;;;;;;;;;5053081;28;20480;-59
2022/08/18 01:14:10;;;;;;;12.63;9.77;;;;;;;;;;5052354;28;20023;-58
2022/08/18 01:22:18;;;;;;;10.95;9.07;;;;;;;;;;5054204;28;20558;-58
2022/08/18 01:27:30;;;;;;;11.93;8.95;;;;;;;;;;5050139;28;20561;-60
2022/08/18 01:29:57;;;;;;;12.73;9.77;;;;;;;;;;5049795;28;20476;-59
2022/08/18 01:32:24;;;;;;;11.18;9.15;;;;;;;;;;5055085;28;20413;-58
2022/08/18 01:34:51;;;;;;;12.15;9.73;;;;;;;;;;5053963;28;20028;-58
2022/08/18 01:37:18;;;;;;;12.48;8.48;;;;;;;;;;5055042;28;20535;-58
2022/08/18 01:39:45;;;;;;;15.48;9.55;;;;;;;;;;5054514;28;20113;-59
2022/08/18 01:42:12;;;;;;;12.23;8.77;;;;;;;;;;5049248;28;20048;-58
2022/08/18 01:44:40;;;;;;;13.10;9.90;;;;;;;;;;5054858;28;20036;-58
2022/08/18 01:47:06;;;;;;;12.65;8.93;;;;;;;;;;5052302;28;20029;-58
2022/08/18 01:49:32;;;;;;;12.23;8.80;;;;;;;;;;5054205;28;20382;-58
2022/08/18 01:51:58;;;;;;;12.05;9.90;;;;;;;;;;5053396;28;20036;-58
2022/08/18 01:54:28;;;;;;;14.85;9.20;;;;;;;;;;5054281;28;20029;-59
2022/08/18 01:56:54;;;;;;;13.18;9.98;;;;;;;;;;5054304;28;20112;-59
2022/08/18 01:59:20;;;;;;;10.43;8.75;;;;;;;;;;5045015;28;20021;-58
2022/08/18 02:01:47;;;;;;;11.90;9.20;;;;;;;;;;5052458;28;20025;-58
2022/08/18 02:04:15;;;;;;;12.18;9.13;;;;;;;;;;5050101;28;20103;-58
2022/08/18 02:06:41;;;;;;;14.38;9.73;;;;;;;;;;5050983;28;20017;-59
2022/08/18 02:09:07;;;;;;;14.05;9.88;;;;;;;;;;5053102;28;20508;-59
2022/08/18 02:11:33;;;;;;;11.55;9.07;;;;;;;;;;5051938;28;20061;-59
2022/08/18 02:13:59;;;;;;;12.55;9.10;;;;;;;;;;5053335;28;20033;-59
2022/08/18 02:16:25;;;;;;;12.45;8.48;;;;;;;;;;5052573;28;20036;-58
2022/08/18 02:18:51;;;;;;;13.13;9.43;;;;;;;;;;5051897;28;20120;-59
2022/08/18 02:21:19;;;;;;;11.30;9.77;;;;;;;;;;5045952;28;20043;-58
2022/08/18 02:23:45;;;;;;;11.43;8.75;;;;;;;;;;5049621;28;20088;-59
2022/08/18 02:26:13;;;;;;;9.77;8.32;;;;;;;;;;5053903;28;20425;-58
2022/08/18 02:28:39;;;;;;;11.02;8.50;;;;;;;;;;5052139;28;20519;-58
2022/08/18 02:31:06;;;;;;;12.15;9.00;;;;;;;;;;5052014;28;20049;-59
2022/08/18 02:33:32;;;;;;;17.08;9.32;;;;;;;;;;5053297;28;20056;-59
2022/08/18 02:35:58;;;;;;;9.98;8.88;;;;;;;;;;5049865;28;20108;-59
2022/08/18 02:38:25;;;;;;;10.18;9.00;;;;;;;;;;5044280;28;20033;-59
2022/08/18 02:40:55;;;;;;;13.45;8.95;;;;;;;;;;5049812;28;20028;-59
2022/08/18 02:43:21;;;;;;;13.07;9.18;;;;;;;;;;5039760;28;20057;-59
2022/08/18 02:45:47;;;;;;;10.07;8.90;;;;;;;;;;5049381;28;20053;-59
2022/08/18 02:48:13;;;;;;;10.95;8.80;;;;;;;;;;5039761;28;20025;-58
2022/08/18 02:50:48;;;;;;;12.38;9.13;;;;;;;;;;5051604;28;20056;-59
2022/08/18 02:53:21;;;;;;;13.88;9.10;;;;;;;;;;5051285;28;20035;-59
2022/08/18 02:55:47;;;;;;;12.05;8.95;;;;;;;;;;5052674;28;20036;-58
2022/08/18 02:58:13;;;;;;;15.80;9.43;;;;;;;;;;5051548;28;20032;-58
2022/08/18 03:00:39;;;;;;;13.02;8.70;;;;;;;;;;5051896;28;20461;-59
2022/08/18 03:03:05;;;;;;;15.68;9.48;;;;;;;;;;5050683;28;20116;-58
2022/08/18 03:05:31;;;;;;;12.90;8.65;;;;;;;;;;5051179;28;20029;-59
2022/08/18 03:07:58;;;;;;;13.90;9.52;;;;;;;;;;5053070;28;20136;-58
2022/08/18 03:10:24;;;;;;;10.90;9.52;;;;;;;;;;5051308;28;20033;-59
2022/08/18 03:12:50;;;;;;;12.68;9.02;;;;;;;;;;5053049;28;20025;-58
2022/08/18 03:15:16;;;;;;;11.95;8.95;;;;;;;;;;5052142;28;20025;-59
2022/08/18 03:17:43;;;;;;;12.40;9.23;;;;;;;;;;5050774;28;20435;-58
2022/08/18 03:20:09;;;;;;;13.43;9.30;;;;;;;;;;5049829;28;20029;-58
2022/08/18 03:22:36;;;;;;;11.30;9.63;;;;;;;;;;5052035;28;20017;-59
2022/08/18 03:25:03;;;;;;;12.02;9.05;;;;;;;;;;5051038;28;20116;-58
2022/08/18 03:27:29;;;;;;;12.35;10.05;;;;;;;;;;5051784;28;20031;-58
2022/08/18 03:29:55;;;;;;;13.18;10.05;;;;;;;;;;5048008;28;20037;-59
2022/08/18 03:32:21;;;;;;;11.80;9.95;;;;;;;;;;5039789;28;20017;-59
2022/08/18 03:34:47;;;;;;;14.45;9.63;;;;;;;;;;5048410;28;20033;-59
2022/08/18 03:37:14;;;;;;;13.70;9.07;;;;;;;;;;5050439;28;20036;-58
2022/08/18 03:39:40;;;;;;;12.55;10.23;;;;;;;;;;5050574;28;20052;-58
2022/08/18 03:42:06;;;;;;;13.93;10.70;;;;;;;;;;5049852;28;20029;-59
2022/08/18 03:44:35;;;;;;;13.45;9.75;;;;;;;;;;5051479;28;20033;-59
2022/08/18 03:47:02;;;;;;;11.57;9.65;;;;;;;;;;5052584;28;20021;-58
2022/08/18 03:49:28;;;;;;;15.90;9.88;;;;;;;;;;5049642;28;20466;-58
2022/08/18 03:51:54;;;;;;;13.35;9.93;;;;;;;;;;5047892;28;20036;-58
2022/08/18 03:54:20;;;;;;;11.15;8.88;;;;;;;;;;5051432;28;20040;-57
2022/08/18 03:56:48;;;;;;;12.85;9.57;;;;;;;;;;5050660;28;20052;-58
2022/08/18 03:59:16;;;;;;;16.20;9.85;;;;;;;;;;5051388;28;20686;-58
2022/08/18 04:01:43;;;;;;;11.68;8.35;;;;;;;;;;5044023;28;20029;-58
2022/08/18 04:04:12;;;;;;;14.07;10.30;;;;;;;;;;5047539;28;20021;-59
2022/08/18 04:06:40;;;;;;;12.15;9.50;;;;;;;;;;5051702;28;20078;-59
2022/08/18 04:09:11;;;;;;;14.75;10.40;;;;;;;;;;5049468;28;20045;-59
2022/08/18 04:11:37;;;;;;;11.23;9.25;;;;;;;;;;5050794;28;20428;-58
2022/08/18 04:14:05;;;;;;;14.85;10.02;;;;;;;;;;5050548;28;20033;-58
2022/08/18 04:16:31;;;;;;;12.85;10.25;;;;;;;;;;5051093;28;20123;-58
2022/08/18 04:19:04;;;;;;;12.40;9.30;;;;;;;;;;5047992;28;20036;-59
2022/08/18 04:21:31;;;;;;;13.50;9.23;;;;;;;;;;5047893;28;20415;-59
2022/08/18 04:24:03;;;;;;;11.63;9.60;;;;;;;;;;5048436;28;20078;-58
2022/08/18 04:26:30;;;;;;;15.40;9.63;;;;;;;;;;5049545;28;20025;-58
2022/08/18 04:28:59;;;;;;;15.02;9.43;;;;;;;;;;5050424;28;20112;-58
2022/08/18 04:31:25;;;;;;;11.73;9.90;;;;;;;;;;5051396;28;20036;-58
2022/08/18 04:33:51;;;;;;;14.65;9.98;;;;;;;;;;5050350;28;20025;-58
2022/08/18 04:36:17;;;;;;;11.63;9.13;;;;;;;;;;5050221;28;20119;-58
2022/08/18 04:38:43;;;;;;;13.77;9.82;;;;;;;;;;5048171;28;20579;-58
2022/08/18 04:41:12;;;;;;;17.92;10.48;;;;;;;;;;5042770;28;20415;-58
2022/08/18 04:43:38;;;;;;;13.38;9.68;;;;;;;;;;5049189;28;20775;-58
2022/08/18 04:46:05;;;;;;;13.63;10.07;;;;;;;;;;5050550;28;20020;-58
2022/08/18 04:48:32;;;;;;;12.88;10.80;;;;;;;;;;5048455;28;20021;-58
2022/08/18 04:51:03;;;;;;;12.57;10.20;;;;;;;;;;5045441;28;20124;-58
2022/08/18 04:53:44;;;;;;;11.63;9.10;;;;;;;;;;5049550;28;20159;-58
2022/08/18 04:56:25;;;;;;;12.07;9.45;;;;;;;;;;5047569;28;20505;-58
2022/08/18 04:58:55;;;;;;;12.05;9.48;;;;;;;;;;5047297;28;20021;-59
2022/08/18 05:01:23;;;;;;;13.70;10.63;;;;;;;;;;5044656;28;20032;-58
2022/08/18 05:03:50;;;;;;;12.57;9.70;;;;;;;;;;5042118;28;20029;-58
2022/08/18 05:06:16;;;;;;;12.80;9.40;;;;;;;;;;5041484;28;20508;-59
2022/08/18 05:08:42;;;;;;;12.93;9.57;;;;;;;;;;5043420;28;20049;-59
2022/08/18 05:11:08;;;;;;;13.52;9.13;;;;;;;;;;5038804;28;20170;-58
2022/08/18 05:13:34;;;;;;;14.73;9.57;;;;;;;;;;5050518;28;20036;-59
2022/08/18 05:16:02;;;;;;;13.90;9.88;;;;;;;;;;5046090;28;20404;-58
2022/08/18 05:18:29;;;;;;;12.48;9.90;;;;;;;;;;5045062;28;20108;-59
2022/08/18 05:20:55;;;;;;;10.93;9.00;;;;;;;;;;5048450;28;20033;-58
2022/08/18 05:23:22;;;;;;;14.15;9.50;;;;;;;;;;5041642;28;20403;-58
2022/08/18 05:25:48;;;;;;;12.80;9.35;;;;;;;;;;5048311;28;20114;-58
2022/08/18 05:28:14;;;;;;;13.48;10.50;;;;;;;;;;5051106;28;20083;-58
2022/08/18 05:30:40;;;;;;;12.52;9.88;;;;;;;;;;5045584;28;20028;-58
2022/08/18 05:33:09;;;;;;;16.27;10.02;;;;;;;;;;5048329;28;20035;-58
2022/08/18 05:35:46;;;;;;;14.57;10.57;;;;;;;;;;5045877;28;20018;-58
2022/08/18 05:38:27;;;;;;;11.13;8.95;;;;;;;;;;5046596;28;20116;-58
2022/08/18 05:41:12;;;;;;;13.30;10.10;;;;;;;;;;5042267;28;20035;-58
2022/08/18 05:43:39;;;;;;;15.48;8.65;;;;;;;;;;5046793;28;20463;-58
2022/08/18 05:46:05;;;;;;;11.13;9.23;;;;;;;;;;5050379;28;20029;-58
2022/08/18 05:48:32;;;;;;;13.07;9.40;;;;;;;;;;5051669;28;20029;-58
2022/08/18 05:51:01;;;;;;;10.88;8.93;;;;;;;;;;5050508;28;20338;-58
2022/08/18 05:56:45;;;;;;;14.95;9.57;;;;;;;;;;5045463;28;20029;-58
2022/08/18 05:59:10;;;;;;;11.63;9.05;;;;;;;;;;5046447;28;20542;-58
2022/08/18 06:01:43;;;;;;;14.32;9.00;;;;;;;;;;5050290;28;20078;-58
2022/08/18 06:04:17;;;;;;;12.43;9.20;;;;;;;;;;5052722;28;20028;-59
2022/08/18 06:06:44;;;;;;;11.05;9.05;;;;;;;;;;5052221;28;20032;-59
2022/08/18 06:09:17;;;;;;;13.13;9.60;;;;;;;;;;5050042;28;20060;-58
2022/08/18 06:11:43;;;;;;;14.13;9.38;;;;;;;;;;5051396;28;20033;-58
2022/08/18 06:14:09;;;;;;;12.80;9.43;;;;;;;;;;5051229;28;20075;-59
2022/08/18 06:16:54;;;;;;;11.63;9.25;;;;;;;;;;5053404;28;20052;-58
2022/08/18 06:19:43;;;;;;;13.05;9.32;;;;;;;;;;5048456;28;20484;-59
2022/08/18 06:22:28;;;;;;;10.25;8.75;;;;;;;;;;5043863;28;20052;-59
2022/08/18 06:24:55;;;;;;;11.10;8.85;;;;;;;;;;5052396;28;20594;-58
2022/08/18 06:27:27;;;;;;;14.25;9.20;;;;;;;;;;5050535;28;20029;-59
2022/08/18 06:30:12;;;;;;;12.48;8.55;;;;;;;;;;5050766;28;21663;-58
2022/08/18 06:33:07;;;;;;;13.50;9.15;;;;;;;;;;5051525;28;20114;-58
2022/08/18 06:35:36;;;;;;;11.82;8.82;;;;;;;;;;5042594;28;20124;-58
2022/08/18 06:41:00;;;;;;;11.23;9.25;;;;;;;;;;5050924;28;20091;-59
2022/08/18 06:43:27;;;;;;;10.73;9.13;;;;;;;;;;5040751;28;20025;-59
2022/08/18 06:45:53;;;;;;;12.38;9.38;;;;;;;;;;5051020;28;20037;-59
2022/08/18 06:48:25;;;;;;;14.85;9.27;;;;;;;;;;5045304;28;20040;-58
2022/08/18 06:50:59;;;;;;;16.58;9.05;;;;;;;;;;5050384;28;20013;-59
2022/08/18 06:53:44;;;;;;;12.10;9.80;;;;;;;;;;5051175;28;20032;-58
2022/08/18 06:56:20;;;;;;;14.25;9.20;;;;;;;;;;5049729;28;20488;-58
2022/08/18 06:58:46;;;;;;;11.10;8.90;;;;;;;;;;5050759;28;20033;-59
2022/08/18 07:01:12;;;;;;;13.77;9.40;;;;;;;;;;5049927;28;20063;-58
2022/08/18 07:03:38;;;;;;;13.88;9.45;;;;;;;;;;5050733;28;20032;-59
2022/08/18 07:06:22;;;;;;;12.02;9.20;;;;;;;;;;5049574;28;20091;-58
2022/08/18 07:08:49;;;;;;;14.75;8.60;;;;;;;;;;5063641;28;20084;-59
2022/08/18 07:11:32;;;;;;;12.88;9.68;;;;;;;;;;5049475;28;20039;-59
2022/08/18 07:14:12;;;;;;;15.13;9.05;;;;;;;;;;5048077;28;20036;-58
2022/08/18 07:16:38;;;;;;;12.00;8.88;;;;;;;;;;5051995;28;20025;-58
2022/08/18 07:19:08;;;;;;;10.70;8.73;;;;;;;;;;5051475;28;20033;-58
2022/08/18 07:21:36;;;;;;;12.57;8.55;;;;;;;;;;5052029;28;20036;-58
2022/08/18 07:24:05;;;;;;;11.55;8.88;;;;;;;;;;5051898;28;20032;-58
2022/08/18 07:26:51;;;;;;;14.30;9.18;;;;;;;;;;5046092;28;20477;-58
2022/08/18 07:29:17;;;;;;;13.88;8.80;;;;;;;;;;5040255;28;20033;-58
2022/08/18 07:31:47;;;;;;;11.35;9.15;;;;;;;;;;5042412;28;20053;-59
2022/08/18 07:34:24;;;;;;;12.32;9.05;;;;;;;;;;5050894;28;20052;-58
2022/08/18 07:37:02;;;;;;;13.45;10.00;;;;;;;;;;5046750;28;20025;-58
2022/08/18 07:39:36;;;;;;;11.85;8.85;;;;;;;;;;5049169;28;20033;-58
2022/08/18 07:42:10;;;;;;;9.60;8.35;;;;;;;;;;5041046;28;20025;-58
2022/08/18 07:44:56;;;;;;;11.85;8.65;;;;;;;;;;5036169;28;20079;-58
2022/08/18 07:47:29;;;;;;;12.60;8.60;;;;;;;;;;5037900;28;20025;-58
2022/08/18 07:49:57;;;;;;;13.82;9.25;;;;;;;;;;5046865;28;20087;-58
2022/08/18 07:52:32;;;;;;;14.43;8.25;;;;;;;;;;5039194;28;20120;-58
2022/08/18 07:54:57;;;;;;;13.25;9.15;;;;;;;;;;5045162;28;20103;-58
2022/08/18 07:57:32;;;;;;;14.70;9.00;;;;;;;;;;5045434;28;20403;-58
2022/08/18 08:00:08;;;;;;;12.95;9.52;;;;;;;;;;5044034;28;20047;-58
2022/08/18 08:02:50;;;;;;;11.93;9.15;;;;;;;;;;5040563;28;20034;-58
2022/08/18 08:05:24;;;;;;;12.07;8.95;;;;;;;;;;5049619;28;20028;-58
2022/08/18 08:07:55;;;;;;;14.43;9.73;;;;;;;;;;5038163;28;20033;-59
2022/08/18 08:10:40;;;;;;;11.02;9.23;;;;;;;;;;5040821;28;20035;-58
2022/08/18 08:13:18;;;;;;;16.05;9.13;;;;;;;;;;5043560;28;20029;-58
2022/08/18 08:15:52;;;;;;;11.65;8.73;;;;;;;;;;5040140;28;20029;-59
2022/08/18 08:18:18;;;;;;;13.52;9.50;;;;;;;;;;5038928;28;20032;-58
2022/08/18 08:20:48;;;;;;;11.25;8.93;;;;;;;;;;5040437;28;20021;-58
2022/08/18 08:23:22;;;;;;;15.07;8.88;;;;;;;;;;5045469;28;20392;-59
2022/08/18 08:26:11;;;;;;;12.80;9.18;;;;;;;;;;5049440;28;20116;-58
2022/08/18 08:28:42;;;;;;;11.52;9.52;;;;;;;;;;5012266;28;20085;-58
2022/08/18 08:31:11;;;;;;;10.77;9.05;;;;;;;;;;5041976;28;20039;-59
2022/08/18 08:33:40;;;;;;;13.63;8.63;;;;;;;;;;5047481;28;20033;-58
2022/08/18 08:36:09;;;;;;;13.98;9.20;;;;;;;;;;5041241;28;20017;-58
2022/08/18 08:38:44;;;;;;;10.98;9.18;;;;;;;;;;5044367;28;20040;-58
2022/08/18 08:41:27;;;;;;;10.52;8.48;;;;;;;;;;5039086;28;20064;-59
2022/08/18 08:44:02;;;;;;;11.90;9.17;;;;;;;;;;5036024;28;20025;-60
2022/08/18 08:46:30;;;;;;;12.98;8.80;;;;;;;;;;5043884;28;20017;-59
2022/08/18 08:49:01;;;;;;;13.00;8.85;;;;;;;;;;5047972;28;20048;-59
2022/08/18 08:51:34;;;;;;;10.90;9.10;;;;;;;;;;5045457;28;20025;-58
2022/08/18 08:54:06;;;;;;;12.25;8.15;;;;;;;;;;5038377;28;20075;-59
2022/08/18 08:56:36;;;;;;;11.55;8.73;;;;;;;;;;5047008;28;20381;-59
2022/08/18 08:59:04;;;;;;;11.25;8.63;;;;;;;;;;5040031;28;20489;-59
2022/08/18 09:01:49;;;;;;;13.10;8.32;;;;;;;;;;5039592;28;20021;-58
2022/08/18 09:04:30;;;;;;;20.92;8.63;;;;;;;;;;5045091;28;20033;-57
2022/08/18 09:06:56;;;;;;;10.90;8.40;;;;;;;;;;5035298;28;20026;-59
2022/08/18 09:09:28;;;;;;;12.05;8.15;;;;;;;;;;5035479;28;20438;-58
2022/08/18 09:12:13;;;;;;;12.63;7.63;;;;;;;;;;5035919;28;20037;-59
2022/08/18 09:14:52;;;;;;;11.02;8.10;;;;;;;;;;5038483;28;20040;-58
2022/08/18 09:17:24;;;;;;;12.48;7.30;;;;;;;;;;5044389;28;20445;-59
2022/08/18 09:20:10;;;;;;;12.57;8.27;;;;;;;;;;5040051;28;20029;-58
2022/08/18 09:22:51;;;;;;;13.65;8.23;;;;;;;;;;5046947;28;20017;-59
2022/08/18 09:25:29;;;;;;;10.27;6.90;;;;;;;;;;5052608;28;20027;-59
2022/08/18 09:28:10;;;;;;;12.20;7.90;;;;;;;;;;5038366;28;20369;-59
2022/08/18 09:30:41;;;;;;;10.10;7.28;;;;;;;;;;5044221;28;20104;-59
2022/08/18 09:33:18;;;;;;;18.45;8.52;;;;;;;;;;5041675;28;20100;-58
2022/08/18 09:36:05;;;;;;;13.93;7.75;;;;;;;;;;5040079;28;20029;-58
2022/08/18 09:41:32;;;;;;;8.98;7.13;;;;;;;;;;5042064;28;20037;-58
2022/08/18 09:44:09;;;;;;;12.25;8.23;;;;;;;;;;5042254;28;20028;-59
2022/08/18 09:46:54;;;;;;;10.85;7.65;;;;;;;;;;5045987;28;20040;-59
2022/08/18 09:49:25;;;;;;;12.25;7.53;;;;;;;;;;5042541;28;20064;-58
2022/08/18 09:51:55;;;;;;;13.95;7.70;;;;;;;;;;5041757;28;20029;-58
2022/08/18 09:54:32;;;;;;;10.07;6.70;;;;;;;;;;5047871;28;20033;-58
2022/08/18 09:57:03;;;;;;;14.55;7.82;;;;;;;;;;5047742;28;20030;-56
2022/08/18 09:59:32;;;;;;;15.15;8.00;;;;;;;;;;5042605;28;20107;-59
2022/08/18 10:01:59;;;;;;;9.77;7.05;;;;;;;;;;5050489;28;20029;-59
2022/08/18 10:04:27;;;;;;;9.32;7.82;;;;;;;;;;5050338;28;20024;-58
2022/08/18 10:06:53;;;;;;;14.88;8.00;;;;;;;;;;5050097;28;20310;-58
2022/08/18 10:09:32;;;;;;;15.40;7.95;;;;;;;;;;5052183;28;20041;-57
2022/08/18 10:12:20;;;;;;;12.48;8.60;;;;;;;;;;5052034;28;20043;-58
2022/08/18 10:14:55;;;;;;;10.57;7.65;;;;;;;;;;5049392;28;20061;-59
2022/08/18 10:17:21;;;;;;;11.68;8.30;;;;;;;;;;5052824;28;20029;-58
2022/08/18 10:19:53;;;;;;;11.52;6.85;;;;;;;;;;5052109;28;20028;-58
2022/08/18 10:22:39;;;;;;;9.13;6.38;;;;;;;;;;5049534;28;20104;-56
2022/08/18 10:25:08;;;;;;;11.77;7.15;;;;;;;;;;5046127;28;20079;-58
2022/08/18 10:28:07;;;;;;;8.80;7.35;;;;;;;;;;5051490;28;20021;-58
2022/08/18 10:30:33;;;;;;;10.60;6.20;;;;;;;;;;5022274;28;21883;-57
2022/08/18 10:32:59;;;;;;;13.23;7.22;;;;;;;;;;5052183;28;20072;-59
2022/08/18 10:35:37;;;;;;;9.73;7.53;;;;;;;;;;5053385;28;20025;-59
2022/08/18 10:38:10;;;;;;;13.05;7.82;;;;;;;;;;5050758;28;20025;-59
2022/08/18 10:40:36;;;;;;;16.67;7.83;;;;;;;;;;5042713;28;20040;-58
2022/08/18 10:43:19;;;;;;;10.60;6.95;;;;;;;;;;5043708;28;20029;-59
2022/08/18 10:45:45;;;;;;;;;;;;;;;;;;5043055;28;20500;-59
2022/08/18 10:48:17;;;;;;;12.95;6.38;;;;;;;;;;5042401;28;19955;-59
2022/08/18 10:51:02;;;;;;;7.50;6.03;;;;;;;;;;5039815;28;20037;-59
2022/08/18 10:53:34;;;;;;;9.60;5.80;;;;;;;;;;5043102;28;20029;-59
2022/08/18 10:56:03;;;;;;;7.78;5.32;;;;;;;;;;5039561;28;20017;-59
2022/08/18 10:59:07;;;;;;;8.07;5.18;;;;;;;;;;5044323;28;20040;-59
2022/08/18 11:01:58;;;;;;;9.00;5.35;;;;;;;;;;4981620;28;20121;-59
2022/08/18 11:04:26;;;;;;;8.27;4.80;;;;;;;;;;4979900;28;20110;-59
2022/08/18 11:06:59;;;;;;;7.35;4.82;;;;;;;;;;5022036;28;20044;-59
2022/08/18 11:09:27;;;;;;;13.27;4.63;;;;;;;;;;5050979;28;20049;-59
2022/08/18 11:11:53;;;;;;;6.88;5.03;;;;;;;;;;5051277;28;20029;-59
2022/08/18 11:14:33;;;;;;;5.80;5.00;;;;;;;;;;5041553;28;20029;-59
2022/08/18 11:17:11;;;;;;;8.88;5.00;;;;;;;;;;5041071;28;20037;-59
2022/08/18 11:19:38;;;;;;;8.13;4.93;;;;;;;;;;5049486;28;20033;-60
2022/08/18 11:22:04;;;;;;;7.82;5.22;;;;;;;;;;5052800;28;20040;-60
2022/08/18 11:24:34;;;;;;;8.68;5.93;;;;;;;;;;5049080;28;20032;-59
2022/08/18 11:27:16;;;;;;;11.32;5.22;;;;;;;;;;5052952;28;20075;-59
2022/08/18 11:29:43;;;;;;;7.67;5.27;;;;;;;;;;5048990;28;20538;-59
2022/08/18 11:32:12;;;;;;;7.40;4.80;;;;;;;;;;5052881;28;20079;-59
2022/08/18 11:34:42;;;;;;;7.55;4.93;;;;;;;;;;5048900;28;20029;-59
2022/08/18 11:37:28;;;;;;;6.13;4.93;;;;;;;;;;5051063;28;20037;-59
2022/08/18 11:39:56;;;;;;;5.68;4.28;;;;;;;;;;5046511;28;20052;-59
2022/08/18 11:42:37;;;;;;;6.13;4.72;;;;;;;;;;5051549;28;20021;-59
2022/08/18 11:45:06;;;;;;;7.85;4.88;;;;;;;;;;5044758;28;20032;-59
2022/08/18 11:47:32;;;;;;;6.88;4.45;;;;;;;;;;5041214;28;20020;-60
2022/08/18 11:50:09;;;;;;;8.32;4.95;;;;;;;;;;5034807;28;20112;-59
2022/08/18 11:52:52;;;;;;;6.68;5.30;;;;;;;;;;5038038;28;20523;-59
2022/08/18 11:55:21;;;;;;;5.22;4.72;;;;;;;;;;5039896;28;20124;-59
2022/08/18 11:57:46;;;;;;;5.78;4.60;;;;;;;;;;5036307;28;20468;-60
2022/08/18 12:00:31;;;;;;;8.90;4.90;;;;;;;;;;5035571;28;20013;-60
2022/08/18 12:03:01;;;;;;;6.80;4.18;;;;;;;;;;5041526;28;20393;-59
2022/08/18 12:05:27;;;;;;;9.05;4.60;;;;;;;;;;5043323;28;20056;-59
2022/08/18 12:07:53;;;;;;;7.13;4.05;;;;;;;;;;5045464;28;20056;-60
2022/08/18 12:10:21;;;;;;;7.88;4.60;;;;;;;;;;5037117;28;20043;-59
2022/08/18 12:12:49;;;;;;;5.82;4.85;;;;;;;;;;5034826;28;20424;-59
2022/08/18 12:15:15;;;;;;;5.97;4.65;;;;;;;;;;5035432;28;20041;-60
2022/08/18 12:17:44;;;;;;;5.78;3.97;;;;;;;;;;5039033;28;20037;-59
2022/08/18 12:20:10;;;;;;;8.77;4.25;;;;;;;;;;5037651;28;20024;-59
2022/08/18 12:22:37;;;;;;;7.05;4.68;;;;;;;;;;5044195;28;20036;-59
2022/08/18 12:25:05;;;;;;;5.93;4.35;;;;;;;;;;5041500;28;20083;-59
2022/08/18 12:27:31;;;;;;;5.88;4.50;;;;;;;;;;5047646;28;20029;-60
2022/08/18 12:29:57;;;;;;;10.25;4.60;;;;;;;;;;5040685;28;20040;-59
2022/08/18 12:32:25;;;;;;;6.03;4.10;;;;;;;;;;5046371;28;20044;-59
2022/08/18 12:34:51;;;;;;;7.70;4.53;;;;;;;;;;5051647;28;20104;-59
2022/08/18 12:37:18;;;;;;;5.97;4.18;;;;;;;;;;5050234;28;20025;-59
2022/08/18 12:39:44;;;;;;;7.40;3.75;;;;;;;;;;5050705;28;20425;-60
2022/08/18 12:42:11;;;;;;;5.30;3.72;;;;;;;;;;5051527;28;20020;-59
2022/08/18 12:44:37;;;;;;;8.55;4.53;;;;;;;;;;5051511;28;20464;-59
2022/08/18 12:47:06;;;;;;;7.63;3.90;;;;;;;;;;5050189;28;20040;-60
2022/08/18 12:49:33;;;;;;;8.07;4.07;;;;;;;;;;5049415;28;20495;-59
2022/08/18 12:51:59;;;;;;;6.47;4.10;;;;;;;;;;5050581;28;20464;-60
2022/08/18 12:54:25;;;;;;;8.57;3.90;;;;;;;;;;5051006;28;20036;-59
2022/08/18 12:56:53;;;;;;;6.20;4.25;;;;;;;;;;5051181;28;20025;-59
2022/08/18 12:59:19;;;;;;;6.72;3.70;;;;;;;;;;5051242;28;20476;-60
2022/08/18 13:01:45;;;;;;;10.30;4.00;;;;;;;;;;5051017;28;20032;-59
2022/08/18 13:04:11;;;;;;;7.38;4.63;;;;;;;;;;5051249;28;20025;-60
2022/08/18 13:06:39;;;;;;;6.07;4.43;;;;;;;;;;5049749;28;20033;-60
2022/08/18 13:09:06;;;;;;;5.90;3.83;;;;;;;;;;5051221;28;20161;-60
2022/08/18 13:11:32;;;;;;;5.97;4.07;;;;;;;;;;5050781;28;20045;-60
2022/08/18 13:13:59;;;;;;;8.43;4.13;;;;;;;;;;5051159;28;20029;-60
2022/08/18 13:16:26;;;;;;;6.40;4.22;;;;;;;;;;5051234;28;20492;-60
2022/08/18 13:18:53;;;;;;;6.72;3.90;;;;;;;;;;5051323;28;20025;-59
2022/08/18 13:21:19;;;;;;;9.68;4.18;;;;;;;;;;5046045;28;20029;-60
2022/08/18 13:23:45;;;;;;;8.27;3.72;;;;;;;;;;5051115;28;20028;-59
2022/08/18 13:26:31;;;;;;;5.32;3.90;;;;;;;;;;5051287;28;20025;-60
2022/08/18 13:28:58;;;;;;;8.27;3.92;;;;;;;;;;5051230;28;20091;-59
2022/08/18 13:31:25;;;;;;;8.30;3.72;;;;;;;;;;5050782;28;20523;-60
2022/08/18 13:33:51;;;;;;;7.18;4.68;;;;;;;;;;5051266;28;20396;-60
2022/08/18 13:36:17;;;;;;;5.53;3.75;;;;;;;;;;5051005;28;20032;-60
2022/08/18 13:38:43;;;;;;;8.73;4.03;;;;;;;;;;5049527;28;20795;-60
2022/08/18 13:41:11;;;;;;;8.60;3.90;;;;;;;;;;5050509;28;20100;-60
2022/08/18 13:43:38;;;;;;;7.65;3.45;;;;;;;;;;5051195;28;20430;-59
2022/08/18 13:46:06;;;;;;;5.10;3.85;;;;;;;;;;5050799;28;20036;-60
2022/08/18 13:48:32;;;;;;;6.95;4.03;;;;;;;;;;5050909;28;20028;-59
2022/08/18 13:50:59;;;;;;;8.45;3.53;;;;;;;;;;5041507;28;20033;-60
2022/08/18 13:53:26;;;;;;;5.15;3.40;;;;;;;;;;5048231;28;20033;-60
2022/08/18 13:55:52;;;;;;;5.97;3.55;;;;;;;;;;5045809;28;20064;-60
2022/08/18 13:58:18;;;;;;;6.15;3.40;;;;;;;;;;5050873;28;20074;-60
2022/08/18 14:00:44;;;;;;;4.70;3.50;;;;;;;;;;5044583;28;20037;-60
2022/08/18 14:03:11;;;;;;;6.07;3.75;;;;;;;;;;5048986;28;20041;-60
2022/08/18 14:05:37;;;;;;;4.55;3.15;;;;;;;;;;5051025;28;20590;-57
2022/08/18 14:08:03;;;;;;;4.85;3.38;;;;;;;;;;5053235;28;20547;-57
2022/08/18 14:10:31;;;;;;;6.30;3.38;;;;;;;;;;5049636;28;20057;-58
2022/08/18 14:12:59;;;;;;;4.97;2.92;;;;;;;;;;5054158;28;20036;-57
2022/08/18 14:15:26;;;;;;;7.45;2.70;;;;;;;;;;5054198;28;20388;-57
2022/08/18 14:17:52;;;;;;;6.60;2.67;;;;;;;;;;5054153;28;20036;-57
2022/08/18 14:28:34;;;;;;;7.00;2.95;;;;;;;;;;5054434;28;20032;-56
2022/08/18 14:31:01;;;;;;;5.25;2.47;;;;;;;;;;5053784;28;20097;-57
2022/08/18 14:33:28;;;;;;;6.10;3.10;;;;;;;;;;5054067;28;20488;-57
2022/08/18 14:35:55;;;;;;;5.50;2.50;;;;;;;;;;5053901;28;20126;-57
2022/08/18 14:38:21;;;;;;;3.80;2.45;;;;;;;;;;5052110;28;20021;-58
2022/08/18 14:40:47;;;;;;;6.57;2.42;;;;;;;;;;5053076;28;20032;-58
2022/08/18 14:43:15;;;;;;;8.10;2.42;;;;;;;;;;5052974;28;20033;-59
2022/08/18 14:45:47;;;;;;;3.97;1.83;;;;;;;;;;5053823;28;20021;-59
2022/08/18 14:48:14;;;;;;;3.30;2.42;;;;;;;;;;5053976;28;20021;-58
2022/08/18 14:50:42;;;;;;;8.30;2.30;;;;;;;;;;5052338;28;20183;-58
2022/08/18 14:53:09;;;;;;;5.55;2.22;;;;;;;;;;5052420;28;20111;-59
2022/08/18 14:55:36;;;;;;;4.43;2.45;;;;;;;;;;5052260;28;20119;-57
2022/08/18 14:58:02;;;;;;;4.97;2.53;;;;;;;;;;5053554;28;20464;-58
2022/08/18 15:00:28;;;;;;;5.75;2.35;;;;;;;;;;5053110;28;20033;-58
2022/08/18 15:02:56;;;;;;;5.20;2.65;;;;;;;;;;5052054;28;20032;-58
2022/08/18 15:05:22;;;;;;;10.27;3.00;;;;;;;;;;5053390;28;20415;-59
2022/08/18 15:07:48;;;;;;;5.28;2.97;;;;;;;;;;5043150;28;20816;-58
2022/08/18 15:10:14;;;;;;;6.68;3.30;;;;;;;;;;5041835;28;20029;-58
2022/08/18 15:12:40;;;;;;;6.63;3.20;;;;;;;;;;5046162;28;20021;-58
2022/08/18 15:15:09;;;;;;;5.72;3.50;;;;;;;;;;5038195;28;20033;-59
2022/08/18 15:17:37;;;;;;;3.47;3.17;;;;;;;;;;5037060;28;20476;-57